DLH105 LSZB-EBBR
Flight info
| Callsign | DLH105 |
|---|---|
| Flight time | 0h 54m |
| Altitude | 36000 |
| Route | KONOL1B KONOL Z59 LUMEL/N0447F360 Z600 HR DCT EDOPI DCT GIVOR DCT SORAL DCT IBERA DCT LIMGO DCT DIK/N0447F320 Y37 BATTY BATTY7A |
| Aircraft | A320/M-SDE3FGHIRWY/LB1 |
Departure
| Time | 2026-04-25 18:14 |
|---|---|
| Airport | Bern Airport (LSZB) |
Arrival
| Time | 2026-04-25 19:09 |
|---|---|
| Airport | Brussels Airport (EBBR) |
| Time | Latitude | Longitude | Altitude | Speed | Heading |
|---|---|---|---|---|---|
| 2026-04-25 17:49 | 46.91307 | 7.50094 | 1681 ft | 0 kts | 86° |
| 2026-04-25 18:03 | 46.91307 | 7.50085 | 1365 ft | 0 kts | 86° |
| 2026-04-25 18:07 | 46.91300 | 7.50091 | 0 ft | 1 kts | 161° |
| 2026-04-25 18:08 | 46.91293 | 7.50087 | 1166 ft | 3 kts | 191° |
| 2026-04-25 18:08 | 46.91260 | 7.50080 | 1681 ft | 6 kts | 183° |
| 2026-04-25 18:08 | 46.91208 | 7.50111 | 1685 ft | 10 kts | 143° |
| 2026-04-25 18:08 | 46.91156 | 7.50176 | 1681 ft | 11 kts | 138° |
| 2026-04-25 18:09 | 46.91084 | 7.50267 | 1681 ft | 16 kts | 139° |
| 2026-04-25 18:09 | 46.90995 | 7.50370 | 1681 ft | 14 kts | 140° |
| 2026-04-25 18:09 | 46.90970 | 7.50400 | 1686 ft | 0 kts | 142° |
| 2026-04-25 18:11 | 46.90962 | 7.50405 | 1681 ft | 3 kts | 160° |
| 2026-04-25 18:11 | 46.90932 | 7.50396 | 1681 ft | 7 kts | 216° |
| 2026-04-25 18:12 | 46.90881 | 7.50367 | 1679 ft | 9 kts | 158° |
| 2026-04-25 18:12 | 46.90815 | 7.50443 | 1679 ft | 15 kts | 140° |
| 2026-04-25 18:12 | 46.90760 | 7.50512 | 1684 ft | 11 kts | 139° |
| 2026-04-25 18:12 | 46.90718 | 7.50584 | 1682 ft | 3 kts | 186° |
| 2026-04-25 18:13 | 46.90713 | 7.50565 | 1681 ft | 1 kts | 309° |
| 2026-04-25 18:13 | 46.90721 | 7.50558 | 1678 ft | 3 kts | 324° |
| 2026-04-25 18:13 | 46.90735 | 7.50543 | 1682 ft | 0 kts | 320° |
| 2026-04-25 18:14 | 46.90752 | 7.50521 | 1682 ft | 16 kts | 320° |
| 2026-04-25 18:14 | 46.91063 | 7.50137 | 1683 ft | 96 kts | 320° |
| 2026-04-25 18:14 | 46.91746 | 7.49301 | 1765 ft | 148 kts | 319° |
| 2026-04-25 18:14 | 46.92552 | 7.48316 | 2385 ft | 153 kts | 321° |
| 2026-04-25 18:15 | 46.93384 | 7.47321 | 3101 ft | 155 kts | 321° |
| 2026-04-25 18:15 | 46.94231 | 7.46307 | 3724 ft | 163 kts | 320° |
| 2026-04-25 18:15 | 46.95141 | 7.45211 | 4212 ft | 177 kts | 320° |
| 2026-04-25 18:15 | 46.96135 | 7.44010 | 4720 ft | 191 kts | 320° |
| 2026-04-25 18:16 | 46.97218 | 7.42836 | 5351 ft | 196 kts | 336° |
| 2026-04-25 18:16 | 46.98564 | 7.42671 | 5895 ft | 200 kts | 15° |
| 2026-04-25 18:16 | 47.00134 | 7.45725 | 6040 ft | 200 kts | 91° |
| 2026-04-25 18:17 | 47.00068 | 7.47769 | 6437 ft | 202 kts | 93° |
| 2026-04-25 18:17 | 47.00006 | 7.49812 | 7094 ft | 204 kts | 92° |
| 2026-04-25 18:17 | 46.99948 | 7.51894 | 7762 ft | 206 kts | 92° |
| 2026-04-25 18:17 | 46.99893 | 7.54032 | 8418 ft | 208 kts | 92° |
| 2026-04-25 18:18 | 46.99839 | 7.56137 | 9057 ft | 211 kts | 92° |
| 2026-04-25 18:18 | 46.99789 | 7.58290 | 9688 ft | 213 kts | 89° |
| 2026-04-25 18:18 | 47.00133 | 7.60380 | 10316 ft | 213 kts | 60° |
| 2026-04-25 18:18 | 47.01140 | 7.61985 | 10920 ft | 214 kts | 30° |
| 2026-04-25 18:19 | 47.02548 | 7.62664 | 11429 ft | 219 kts | 1° |
| 2026-04-25 18:19 | 47.04062 | 7.62217 | 11804 ft | 231 kts | 330° |
| 2026-04-25 18:19 | 47.05356 | 7.60771 | 12270 ft | 245 kts | 318° |
| 2026-04-25 18:19 | 47.06693 | 7.59058 | 12757 ft | 262 kts | 317° |
| 2026-04-25 18:20 | 47.08111 | 7.57233 | 13261 ft | 279 kts | 316° |
| 2026-04-25 18:20 | 47.09616 | 7.55299 | 13737 ft | 296 kts | 316° |
| 2026-04-25 18:20 | 47.11214 | 7.53251 | 14183 ft | 313 kts | 316° |
| 2026-04-25 18:20 | 47.12907 | 7.51085 | 14604 ft | 331 kts | 316° |
| 2026-04-25 18:21 | 47.14670 | 7.48835 | 14997 ft | 347 kts | 316° |
| 2026-04-25 18:21 | 47.16542 | 7.46448 | 15352 ft | 364 kts | 316° |
| 2026-04-25 18:21 | 47.18502 | 7.43947 | 15777 ft | 377 kts | 316° |
| 2026-04-25 18:21 | 47.20503 | 7.41393 | 16418 ft | 383 kts | 316° |
| 2026-04-25 18:22 | 47.22527 | 7.38809 | 17052 ft | 389 kts | 316° |
| 2026-04-25 18:22 | 47.23913 | 7.37035 | 17424 ft | 392 kts | 316° |
| 2026-04-25 18:22 | 47.26659 | 7.33519 | 18246 ft | 398 kts | 316° |
| 2026-04-25 18:22 | 47.28759 | 7.30824 | 18871 ft | 403 kts | 316° |
| 2026-04-25 18:23 | 47.30882 | 7.28098 | 19470 ft | 407 kts | 316° |
| 2026-04-25 18:23 | 47.33046 | 7.25315 | 20074 ft | 411 kts | 315° |
| 2026-04-25 18:23 | 47.35180 | 7.22563 | 20693 ft | 415 kts | 315° |
| 2026-04-25 18:23 | 47.37388 | 7.19709 | 21298 ft | 419 kts | 315° |
| 2026-04-25 18:24 | 47.39546 | 7.16785 | 21842 ft | 421 kts | 310° |
| 2026-04-25 18:24 | 47.41358 | 7.13476 | 22401 ft | 419 kts | 300° |
| 2026-04-25 18:24 | 47.42815 | 7.09757 | 22947 ft | 419 kts | 294° |
| 2026-04-25 18:24 | 47.44220 | 7.05902 | 23470 ft | 423 kts | 294° |
| 2026-04-25 18:25 | 47.45624 | 7.02066 | 23971 ft | 426 kts | 294° |
| 2026-04-25 18:25 | 47.47047 | 6.98188 | 24448 ft | 430 kts | 294° |
| 2026-04-25 18:25 | 47.48473 | 6.94303 | 24923 ft | 432 kts | 294° |
| 2026-04-25 18:25 | 47.49905 | 6.90393 | 25415 ft | 433 kts | 294° |
| 2026-04-25 18:26 | 47.51341 | 6.86461 | 25899 ft | 435 kts | 294° |
| 2026-04-25 18:26 | 47.52780 | 6.82528 | 26380 ft | 436 kts | 294° |
| 2026-04-25 18:26 | 47.54387 | 6.78757 | 26842 ft | 442 kts | 303° |
| 2026-04-25 18:26 | 47.56488 | 6.75383 | 27288 ft | 450 kts | 314° |
| 2026-04-25 18:27 | 47.59036 | 6.72634 | 27714 ft | 458 kts | 326° |
| 2026-04-25 18:27 | 47.61985 | 6.70632 | 28134 ft | 466 kts | 337° |
| 2026-04-25 18:27 | 47.65107 | 6.69222 | 28512 ft | 469 kts | 339° |
| 2026-04-25 18:27 | 47.68235 | 6.67833 | 28878 ft | 470 kts | 339° |
| 2026-04-25 18:28 | 47.71331 | 6.66449 | 29231 ft | 471 kts | 339° |
| 2026-04-25 18:28 | 47.74518 | 6.65018 | 29562 ft | 473 kts | 339° |
| 2026-04-25 18:28 | 47.77671 | 6.63596 | 29879 ft | 474 kts | 339° |
| 2026-04-25 18:29 | 47.84001 | 6.60738 | 30509 ft | 476 kts | 338° |
| 2026-04-25 18:29 | 47.87180 | 6.59297 | 30775 ft | 478 kts | 338° |
| 2026-04-25 18:30 | 47.96827 | 6.55861 | 31877 ft | 473 kts | 347° |
| 2026-04-25 18:30 | 48.00051 | 6.55105 | 32455 ft | 465 kts | 347° |
| 2026-04-25 18:30 | 48.03215 | 6.54353 | 33022 ft | 456 kts | 347° |
| 2026-04-25 18:30 | 48.06370 | 6.53594 | 33472 ft | 452 kts | 347° |
| 2026-04-25 18:31 | 48.09472 | 6.52846 | 33823 ft | 451 kts | 347° |
| 2026-04-25 18:31 | 48.12527 | 6.52108 | 34141 ft | 450 kts | 347° |
| 2026-04-25 18:31 | 48.15663 | 6.51350 | 34456 ft | 450 kts | 347° |
| 2026-04-25 18:31 | 48.18716 | 6.50613 | 34770 ft | 449 kts | 347° |
| 2026-04-25 18:32 | 48.21795 | 6.49870 | 35074 ft | 449 kts | 347° |
| 2026-04-25 18:32 | 48.24919 | 6.49116 | 35383 ft | 448 kts | 347° |
| 2026-04-25 18:32 | 48.27989 | 6.48376 | 35658 ft | 447 kts | 347° |
| 2026-04-25 18:32 | 48.31062 | 6.47632 | 35927 ft | 447 kts | 347° |
| 2026-04-25 18:33 | 48.34132 | 6.46888 | 36078 ft | 447 kts | 347° |
| 2026-04-25 18:33 | 48.37159 | 6.46153 | 36113 ft | 446 kts | 347° |
| 2026-04-25 18:33 | 48.43279 | 6.44665 | 36108 ft | 445 kts | 347° |
| 2026-04-25 18:34 | 48.49438 | 6.43160 | 36111 ft | 445 kts | 347° |
| 2026-04-25 18:34 | 48.55556 | 6.41664 | 36138 ft | 448 kts | 348° |
| 2026-04-25 18:35 | 48.61763 | 6.40143 | 36136 ft | 460 kts | 348° |
| 2026-04-25 18:35 | 48.68251 | 6.39362 | 36144 ft | 473 kts | 2° |
| 2026-04-25 18:36 | 48.74843 | 6.40049 | 36122 ft | 477 kts | 4° |
| 2026-04-25 18:36 | 48.81403 | 6.40722 | 35984 ft | 462 kts | 5° |
| 2026-04-25 18:37 | 48.84577 | 6.41039 | 35688 ft | 452 kts | 6° |
| 2026-04-25 18:37 | 48.87677 | 6.41345 | 35388 ft | 443 kts | 6° |
| 2026-04-25 18:37 | 48.90723 | 6.41645 | 35077 ft | 434 kts | 7° |
| 2026-04-25 18:37 | 48.93725 | 6.41946 | 34786 ft | 425 kts | 7° |
| 2026-04-25 18:38 | 48.96649 | 6.42243 | 34486 ft | 417 kts | 7° |
| 2026-04-25 18:38 | 48.99511 | 6.42533 | 34180 ft | 408 kts | 6° |
| 2026-04-25 18:38 | 49.02321 | 6.42749 | 33785 ft | 404 kts | 0° |
| 2026-04-25 18:38 | 49.05093 | 6.42119 | 33385 ft | 401 kts | 349° |
| 2026-04-25 18:39 | 49.07799 | 6.41185 | 32953 ft | 396 kts | 348° |
| 2026-04-25 18:39 | 49.10466 | 6.40249 | 32504 ft | 392 kts | 348° |
| 2026-04-25 18:39 | 49.13117 | 6.39303 | 32052 ft | 388 kts | 348° |
| 2026-04-25 18:39 | 49.15753 | 6.38356 | 31601 ft | 391 kts | 348° |
| 2026-04-25 18:40 | 49.18425 | 6.37401 | 31142 ft | 396 kts | 349° |
| 2026-04-25 18:40 | 49.21121 | 6.36442 | 30698 ft | 401 kts | 350° |
| 2026-04-25 18:40 | 49.23858 | 6.35468 | 30248 ft | 408 kts | 350° |
| 2026-04-25 18:40 | 49.26649 | 6.34472 | 29794 ft | 415 kts | 350° |
| 2026-04-25 18:41 | 49.29485 | 6.33461 | 29344 ft | 422 kts | 350° |
| 2026-04-25 18:41 | 49.32366 | 6.32436 | 28891 ft | 428 kts | 349° |
| 2026-04-25 18:41 | 49.35283 | 6.31396 | 28442 ft | 434 kts | 349° |
| 2026-04-25 18:41 | 49.38230 | 6.30340 | 27985 ft | 437 kts | 348° |
| 2026-04-25 18:42 | 49.41205 | 6.29268 | 27536 ft | 438 kts | 347° |
| 2026-04-25 18:42 | 49.42196 | 6.28910 | 27390 ft | 439 kts | 347° |
| 2026-04-25 18:42 | 49.47144 | 6.27117 | 26636 ft | 438 kts | 346° |
| 2026-04-25 18:42 | 49.50104 | 6.26046 | 26192 ft | 436 kts | 346° |
| 2026-04-25 18:43 | 49.53055 | 6.24979 | 25734 ft | 434 kts | 345° |
| 2026-04-25 18:43 | 49.55977 | 6.23925 | 25209 ft | 429 kts | 345° |
| 2026-04-25 18:43 | 49.58874 | 6.22885 | 24582 ft | 425 kts | 345° |
| 2026-04-25 18:43 | 49.61742 | 6.21857 | 23949 ft | 422 kts | 345° |
| 2026-04-25 18:44 | 49.64596 | 6.20829 | 23333 ft | 418 kts | 346° |
| 2026-04-25 18:44 | 49.67429 | 6.19802 | 22706 ft | 414 kts | 346° |
| 2026-04-25 18:44 | 49.70191 | 6.18797 | 22083 ft | 411 kts | 346° |
| 2026-04-25 18:44 | 49.72973 | 6.17780 | 21453 ft | 408 kts | 346° |
| 2026-04-25 18:45 | 49.75722 | 6.16773 | 20829 ft | 405 kts | 346° |
| 2026-04-25 18:45 | 49.78453 | 6.15777 | 20203 ft | 403 kts | 346° |
| 2026-04-25 18:45 | 49.81141 | 6.14485 | 19568 ft | 399 kts | 334° |
| 2026-04-25 18:45 | 49.83528 | 6.12404 | 18949 ft | 397 kts | 329° |
| 2026-04-25 18:46 | 49.85895 | 6.10222 | 18321 ft | 395 kts | 329° |
| 2026-04-25 18:46 | 49.88247 | 6.08043 | 17696 ft | 393 kts | 329° |
| 2026-04-25 18:46 | 49.90593 | 6.05862 | 17072 ft | 391 kts | 329° |
| 2026-04-25 18:46 | 49.92921 | 6.03695 | 16442 ft | 389 kts | 329° |
| 2026-04-25 18:47 | 49.95237 | 6.01540 | 15812 ft | 387 kts | 329° |
| 2026-04-25 18:47 | 49.97549 | 5.99385 | 15179 ft | 385 kts | 329° |
| 2026-04-25 18:47 | 49.99838 | 5.97250 | 14559 ft | 383 kts | 329° |
| 2026-04-25 18:47 | 50.02113 | 5.95125 | 13937 ft | 380 kts | 329° |
| 2026-04-25 18:48 | 50.04365 | 5.93020 | 13417 ft | 375 kts | 329° |
| 2026-04-25 18:48 | 50.06591 | 5.90938 | 12967 ft | 367 kts | 329° |
| 2026-04-25 18:48 | 50.08742 | 5.88925 | 12516 ft | 360 kts | 329° |
| 2026-04-25 18:48 | 50.10867 | 5.86933 | 12186 ft | 351 kts | 329° |
| 2026-04-25 18:49 | 50.12951 | 5.84976 | 12123 ft | 350 kts | 329° |
| 2026-04-25 18:49 | 50.15036 | 5.83013 | 12138 ft | 350 kts | 329° |
| 2026-04-25 18:49 | 50.17108 | 5.81059 | 11938 ft | 349 kts | 329° |
| 2026-04-25 18:49 | 50.19159 | 5.79125 | 11687 ft | 341 kts | 328° |
| 2026-04-25 18:50 | 50.21183 | 5.77220 | 11437 ft | 340 kts | 328° |
| 2026-04-25 18:50 | 50.23224 | 5.75294 | 11181 ft | 339 kts | 328° |
| 2026-04-25 18:50 | 50.25226 | 5.73401 | 10929 ft | 339 kts | 328° |
| 2026-04-25 18:50 | 50.27238 | 5.71497 | 10685 ft | 337 kts | 328° |
| 2026-04-25 18:51 | 50.29240 | 5.69598 | 10435 ft | 336 kts | 328° |
| 2026-04-25 18:51 | 50.29903 | 5.68969 | 10353 ft | 335 kts | 329° |
| 2026-04-25 18:51 | 50.32540 | 5.66468 | 10082 ft | 324 kts | 329° |
| 2026-04-25 18:51 | 50.34437 | 5.64669 | 9936 ft | 309 kts | 329° |
| 2026-04-25 18:52 | 50.36239 | 5.62958 | 9816 ft | 296 kts | 328° |
| 2026-04-25 18:52 | 50.37967 | 5.61321 | 9690 ft | 284 kts | 328° |
| 2026-04-25 18:52 | 50.39649 | 5.59726 | 9562 ft | 282 kts | 328° |
| 2026-04-25 18:52 | 50.41312 | 5.58143 | 9439 ft | 281 kts | 328° |
| 2026-04-25 18:53 | 50.42984 | 5.56547 | 9315 ft | 281 kts | 328° |
| 2026-04-25 18:53 | 50.44655 | 5.54950 | 9189 ft | 281 kts | 328° |
| 2026-04-25 18:53 | 50.46327 | 5.53353 | 9062 ft | 281 kts | 327° |
| 2026-04-25 18:53 | 50.47999 | 5.51753 | 8936 ft | 281 kts | 327° |
| 2026-04-25 18:54 | 50.51346 | 5.48553 | 8688 ft | 282 kts | 327° |
| 2026-04-25 18:54 | 50.53017 | 5.46956 | 8560 ft | 282 kts | 327° |
| 2026-04-25 18:54 | 50.54684 | 5.45363 | 8436 ft | 283 kts | 327° |
| 2026-04-25 18:55 | 50.56370 | 5.43751 | 8308 ft | 283 kts | 327° |
| 2026-04-25 18:55 | 50.58049 | 5.42139 | 8185 ft | 283 kts | 327° |
| 2026-04-25 18:55 | 50.59729 | 5.40522 | 8059 ft | 283 kts | 327° |
| 2026-04-25 18:55 | 50.61404 | 5.38908 | 7935 ft | 284 kts | 327° |
| 2026-04-25 18:56 | 50.63097 | 5.37267 | 7775 ft | 284 kts | 327° |
| 2026-04-25 18:56 | 50.64792 | 5.35610 | 7519 ft | 284 kts | 327° |
| 2026-04-25 18:56 | 50.66464 | 5.33966 | 7273 ft | 283 kts | 327° |
| 2026-04-25 18:56 | 50.68125 | 5.32308 | 7025 ft | 282 kts | 327° |
| 2026-04-25 18:57 | 50.69779 | 5.30638 | 6767 ft | 282 kts | 327° |
| 2026-04-25 18:57 | 50.71420 | 5.28959 | 6522 ft | 281 kts | 327° |
| 2026-04-25 18:57 | 50.73037 | 5.27283 | 6285 ft | 273 kts | 327° |
| 2026-04-25 18:57 | 50.74070 | 5.26201 | 6202 ft | 264 kts | 327° |
| 2026-04-25 18:58 | 50.76062 | 5.24088 | 6188 ft | 249 kts | 327° |
| 2026-04-25 18:58 | 50.78868 | 5.21086 | 6193 ft | 245 kts | 327° |
| 2026-04-25 18:58 | 50.80299 | 5.19556 | 6193 ft | 245 kts | 327° |
| 2026-04-25 18:59 | 50.83128 | 5.16529 | 6193 ft | 245 kts | 327° |
| 2026-04-25 18:59 | 50.85954 | 5.13504 | 6193 ft | 245 kts | 327° |
| 2026-04-25 19:00 | 50.88425 | 5.09842 | 6120 ft | 248 kts | 304° |
| 2026-04-25 19:00 | 50.89360 | 5.07580 | 5928 ft | 242 kts | 303° |
| 2026-04-25 19:01 | 50.91112 | 5.03175 | 5186 ft | 232 kts | 303° |
| 2026-04-25 19:01 | 50.91954 | 5.01017 | 4794 ft | 229 kts | 303° |
| 2026-04-25 19:01 | 50.92784 | 4.98871 | 4442 ft | 227 kts | 303° |
| 2026-04-25 19:01 | 50.93577 | 4.96717 | 4148 ft | 225 kts | 294° |
| 2026-04-25 19:02 | 50.94352 | 4.91917 | 3768 ft | 224 kts | 283° |
| 2026-04-25 19:02 | 50.94658 | 4.89539 | 3550 ft | 218 kts | 283° |
| 2026-04-25 19:02 | 50.94952 | 4.87199 | 3301 ft | 214 kts | 283° |
| 2026-04-25 19:03 | 50.95427 | 4.83398 | 2998 ft | 205 kts | 283° |
| 2026-04-25 19:03 | 50.95781 | 4.80538 | 2977 ft | 194 kts | 283° |
| 2026-04-25 19:03 | 50.95834 | 4.78415 | 2983 ft | 195 kts | 258° |
| 2026-04-25 19:04 | 50.95014 | 4.74673 | 2949 ft | 159 kts | 251° |
| 2026-04-25 19:04 | 50.94657 | 4.73114 | 2821 ft | 148 kts | 251° |
| 2026-04-25 19:05 | 50.93957 | 4.70052 | 2496 ft | 145 kts | 251° |
| 2026-04-25 19:05 | 50.93277 | 4.67075 | 2110 ft | 143 kts | 250° |
| 2026-04-25 19:05 | 50.92937 | 4.65590 | 1919 ft | 143 kts | 249° |
| 2026-04-25 19:06 | 50.92599 | 4.64116 | 1730 ft | 142 kts | 249° |
| 2026-04-25 19:06 | 50.91935 | 4.61216 | 1359 ft | 139 kts | 248° |
| 2026-04-25 19:06 | 50.91606 | 4.59784 | 1175 ft | 137 kts | 247° |
| 2026-04-25 19:07 | 50.90969 | 4.57008 | 817 ft | 132 kts | 247° |
| 2026-04-25 19:07 | 50.90654 | 4.55639 | 647 ft | 132 kts | 246° |
| 2026-04-25 19:08 | 50.90032 | 4.52915 | 280 ft | 132 kts | 247° |
| 2026-04-25 19:08 | 50.89718 | 4.51560 | 178 ft | 124 kts | 248° |
| 2026-04-25 19:09 | 50.89167 | 4.49188 | 170 ft | 27 kts | 251° |
| 2026-04-25 19:09 | 50.89158 | 4.49067 | 169 ft | 13 kts | 302° |
| 2026-04-25 19:09 | 50.89229 | 4.49051 | 167 ft | 1 kts | 12° |
| 2026-04-25 19:10 | 50.89237 | 4.49054 | 167 ft | 1 kts | 12° |
| 2026-04-25 19:10 | 50.89240 | 4.49055 | 167 ft | 1 kts | 13° |
| 2026-04-25 19:10 | 50.89246 | 4.49058 | 167 ft | 1 kts | 13° |
| 2026-04-25 19:10 | 50.89257 | 4.49061 | 167 ft | 2 kts | 13° |
| 2026-04-25 19:11 | 50.89268 | 4.49066 | 167 ft | 1 kts | 13° |
| 2026-04-25 19:11 | 50.89279 | 4.49070 | 167 ft | 2 kts | 13° |
| 2026-04-25 19:11 | 50.89296 | 4.49076 | 166 ft | 3 kts | 13° |
| 2026-04-25 19:11 | 50.89319 | 4.49087 | 166 ft | 4 kts | 15° |
| 2026-04-25 19:12 | 50.89347 | 4.49076 | 165 ft | 4 kts | 326° |
| 2026-04-25 19:12 | 50.89356 | 4.49065 | 165 ft | 1 kts | 322° |
| 2026-04-25 19:12 | 50.89378 | 4.49038 | 165 ft | 4 kts | 321° |
| 2026-04-25 19:12 | 50.89403 | 4.49014 | 165 ft | 5 kts | 340° |
| 2026-04-25 19:13 | 50.89442 | 4.49018 | 163 ft | 7 kts | 12° |
| 2026-04-25 19:13 | 50.89490 | 4.49036 | 162 ft | 7 kts | 14° |
| 2026-04-25 19:13 | 50.89537 | 4.49054 | 162 ft | 7 kts | 14° |
| 2026-04-25 19:13 | 50.89579 | 4.49072 | 162 ft | 6 kts | 15° |
| 2026-04-25 19:14 | 50.89612 | 4.49101 | 162 ft | 5 kts | 36° |
| 2026-04-25 19:14 | 50.89621 | 4.49112 | 162 ft | 5 kts | 36° |
| 2026-04-25 19:14 | 50.89675 | 4.49157 | 161 ft | 6 kts | 17° |
| 2026-04-25 19:14 | 50.89717 | 4.49173 | 161 ft | 6 kts | 15° |
| 2026-04-25 19:15 | 50.89753 | 4.49188 | 161 ft | 5 kts | 15° |
| 2026-04-25 19:15 | 50.89781 | 4.49201 | 161 ft | 4 kts | 15° |
| 2026-04-25 19:15 | 50.89816 | 4.49215 | 161 ft | 10 kts | 14° |
| 2026-04-25 19:15 | 50.89899 | 4.49249 | 158 ft | 15 kts | 14° |
| 2026-04-25 19:16 | 50.90023 | 4.49300 | 153 ft | 21 kts | 14° |
| 2026-04-25 19:16 | 50.90165 | 4.49356 | 145 ft | 11 kts | 14° |
| 2026-04-25 19:16 | 50.90244 | 4.49390 | 142 ft | 13 kts | 14° |
| 2026-04-25 19:16 | 50.90291 | 4.49408 | 140 ft | 4 kts | 15° |
| 2026-04-25 19:17 | 50.90310 | 4.49416 | 140 ft | 1 kts | 14° |
| 2026-04-25 19:17 | 50.90316 | 4.49418 | 139 ft | 2 kts | 14° |
| 2026-04-25 19:17 | 50.90333 | 4.49426 | 138 ft | 0 kts | 15° |
| 2026-04-25 19:17 | 50.90336 | 4.49423 | 138 ft | 0 kts | 348° |
| 2026-04-25 19:18 | 50.90337 | 4.49416 | 138 ft | 1 kts | 296° |
| 2026-04-25 19:18 | 50.90334 | 4.49380 | 138 ft | 1 kts | 254° |
| 2026-04-25 19:18 | 50.90321 | 4.49364 | 139 ft | 0 kts | 222° |